createdAt,value
2023-01-02T00:01:15.764Z,100.00
2023-01-02T00:03:43.354Z,100.00
2023-01-02T00:06:10.954Z,100.00
2023-01-02T00:08:39.020Z,100.00
2023-01-02T00:11:06.844Z,100.00
2023-01-02T00:13:35.811Z,100.00
2023-01-02T00:16:03.480Z,100.00
2023-01-02T00:18:31.105Z,100.00
2023-01-02T00:21:03.590Z,100.00
2023-01-02T00:23:32.210Z,100.00
2023-01-02T00:26:00.252Z,100.00
2023-01-02T00:28:27.922Z,100.00
2023-01-02T00:30:56.950Z,100.00
2023-01-02T00:33:24.615Z,99.88
2023-01-02T00:35:52.162Z,99.79
2023-01-02T00:38:20.200Z,99.81
2023-01-02T00:40:47.745Z,99.52
2023-01-02T00:43:16.800Z,99.40
2023-01-02T00:45:44.659Z,99.64
2023-01-02T00:48:13.536Z,99.33
2023-01-02T00:50:41.100Z,99.50
2023-01-02T00:53:08.633Z,99.51
2023-01-02T00:55:36.185Z,99.65
2023-01-02T00:58:03.741Z,99.52
2023-01-02T01:00:31.512Z,99.40
2023-01-02T01:02:59.969Z,99.50
2023-01-02T01:05:29.804Z,99.34
2023-01-02T01:07:58.430Z,99.29
2023-01-02T01:10:27.480Z,99.49
2023-01-02T01:12:55.164Z,99.38
2023-01-02T01:15:22.759Z,99.66
2023-01-02T01:17:50.311Z,99.91
2023-01-02T01:20:18.141Z,100.00
2023-01-02T01:22:47.017Z,100.00
2023-01-02T01:25:14.652Z,100.00
2023-01-02T01:27:42.409Z,100.00
2023-01-02T01:30:11.021Z,100.00
2023-01-02T01:32:38.565Z,100.00
2023-01-02T01:35:07.804Z,99.40
2023-01-02T01:37:35.366Z,98.66
2023-01-02T01:40:04.643Z,97.66
2023-01-02T01:42:33.895Z,97.19
2023-01-02T01:45:01.472Z,96.94
2023-01-02T01:47:37.045Z,96.60
2023-01-02T01:50:09.917Z,96.51
2023-01-02T01:52:41.584Z,96.03
2023-01-02T01:55:16.066Z,95.99
2023-01-02T01:57:47.382Z,95.40
2023-01-02T02:00:15.419Z,95.12
2023-01-02T02:02:47.029Z,94.83
2023-01-02T02:05:18.433Z,94.65
2023-01-02T02:07:53.445Z,94.68
2023-01-02T02:10:22.322Z,94.53
2023-01-02T02:12:49.918Z,95.04
2023-01-02T02:15:22.290Z,95.21
2023-01-02T02:18:00.144Z,95.25
2023-01-02T02:20:34.458Z,94.91
2023-01-02T02:23:38.560Z,95.19
2023-01-02T02:26:32.915Z,94.59
2023-01-02T02:29:26.765Z,94.52
2023-01-02T02:32:02.939Z,94.38
2023-01-02T02:34:41.205Z,94.17
2023-01-02T02:37:22.567Z,94.33
2023-01-02T02:40:01.686Z,94.56
2023-01-02T02:42:40.523Z,94.55
2023-01-02T02:45:15.653Z,94.10
2023-01-02T02:47:49.705Z,93.96
2023-01-02T02:50:23.968Z,93.51
2023-01-02T02:52:58.048Z,93.03
2023-01-02T02:55:31.494Z,92.88
2023-01-02T02:58:01.235Z,92.78
2023-01-02T03:00:28.802Z,93.02
2023-01-02T03:02:58.616Z,92.83
2023-01-02T03:05:34.808Z,92.60
2023-01-02T03:08:10.756Z,92.70
2023-01-02T03:10:47.115Z,92.96
2023-01-02T03:13:20.861Z,93.33
2023-01-02T03:15:59.551Z,93.51
2023-01-02T03:18:34.769Z,93.72
2023-01-02T03:21:08.325Z,94.11
2023-01-02T03:23:44.252Z,94.04
2023-01-02T03:26:14.593Z,94.26
2023-01-02T03:28:46.655Z,94.12
2023-01-02T03:31:18.435Z,94.01
2023-01-02T03:33:53.768Z,94.30
2023-01-02T03:36:25.416Z,94.14
2023-01-02T03:39:01.938Z,94.50
2023-01-02T03:41:34.556Z,94.66
2023-01-02T03:44:03.318Z,94.68
2023-01-02T03:46:35.932Z,94.90
2023-01-02T03:49:08.020Z,95.16
2023-01-02T03:51:36.476Z,95.28
2023-01-02T03:54:05.346Z,94.89
2023-01-02T03:56:42.482Z,94.87
2023-01-02T03:59:18.740Z,94.09
2023-01-02T04:01:50.233Z,93.53
2023-01-02T04:04:23.819Z,93.41
2023-01-02T04:06:59.048Z,93.03
2023-01-02T04:09:29.123Z,92.70
2023-01-02T04:12:01.194Z,92.17
2023-01-02T04:14:34.117Z,91.86
2023-01-02T04:17:05.303Z,91.23
2023-01-02T04:19:39.217Z,91.00
2023-01-02T04:22:11.223Z,90.60
2023-01-02T04:24:43.042Z,90.39
2023-01-02T04:27:14.646Z,89.36
2023-01-02T04:29:42.372Z,89.26
2023-01-02T04:32:15.432Z,89.04
2023-01-02T04:34:46.497Z,88.74
2023-01-02T04:37:30.727Z,88.51
2023-01-02T04:40:03.561Z,88.14
2023-01-02T04:42:31.283Z,88.08
2023-01-02T04:44:58.764Z,87.87
2023-01-02T04:47:26.261Z,87.74
2023-01-02T04:49:55.082Z,87.65
2023-01-02T04:52:22.628Z,87.39
2023-01-02T04:54:50.145Z,87.82
2023-01-02T04:57:17.640Z,88.05
2023-01-02T04:59:45.107Z,88.33
2023-01-02T05:02:12.672Z,88.56
2023-01-02T05:04:40.264Z,88.74
2023-01-02T05:07:09.089Z,88.98
2023-01-02T05:09:36.639Z,89.20
2023-01-02T05:12:04.451Z,89.55
2023-01-02T05:14:32.184Z,89.70
2023-01-02T05:17:00.126Z,89.62
2023-01-02T05:19:27.640Z,89.38
2023-01-02T05:22:12.669Z,89.55
2023-01-02T05:24:41.506Z,89.51
2023-01-02T05:27:08.988Z,89.44
2023-01-02T05:29:36.562Z,89.49
2023-01-02T05:32:04.101Z,89.78
2023-01-02T05:34:31.647Z,89.72
2023-01-02T05:36:59.122Z,89.72
2023-01-02T05:39:26.749Z,89.44
2023-01-02T05:41:55.596Z,89.32
2023-01-02T05:44:23.103Z,89.63
2023-01-02T05:46:50.640Z,89.74
2023-01-02T05:49:18.224Z,89.70
2023-01-02T05:51:45.748Z,89.83
2023-01-02T05:54:13.259Z,89.74
2023-01-02T05:56:40.771Z,89.49
2023-01-02T05:59:09.722Z,89.62
2023-01-02T06:01:37.594Z,89.49
2023-01-02T06:04:05.470Z,89.23
2023-01-02T06:06:34.872Z,88.58
2023-01-02T06:09:02.836Z,88.05
2023-01-02T06:11:30.802Z,87.77
2023-01-02T06:13:58.747Z,87.55
2023-01-02T06:16:28.017Z,87.35
2023-01-02T06:18:56.621Z,86.92
2023-01-02T06:21:24.604Z,86.92
2023-01-02T06:23:56.287Z,86.73
2023-01-02T06:26:28.716Z,86.61
2023-01-02T06:28:59.075Z,86.70
2023-01-02T06:31:29.585Z,86.75
2023-01-02T06:33:58.585Z,86.89
2023-01-02T06:36:26.964Z,87.18
2023-01-02T06:38:54.463Z,86.86
2023-01-02T06:41:21.967Z,87.34
2023-01-02T06:43:52.255Z,87.56
2023-01-02T06:46:21.795Z,88.16
2023-01-02T06:48:51.351Z,88.65
2023-01-02T06:51:20.973Z,88.92
2023-01-02T06:53:48.560Z,89.22
2023-01-02T06:56:17.842Z,89.10
2023-01-02T06:58:45.537Z,89.40
2023-01-02T07:01:14.997Z,89.38
2023-01-02T07:03:43.510Z,89.64
2023-01-02T07:06:14.328Z,89.59
2023-01-02T07:08:43.033Z,89.46
2023-01-02T07:11:12.787Z,89.77
2023-01-02T07:13:40.999Z,89.54
2023-01-02T07:16:10.750Z,89.58
2023-01-02T07:18:38.657Z,89.72
2023-01-02T07:21:07.229Z,89.69
2023-01-02T07:23:36.699Z,89.80
2023-01-02T07:26:06.379Z,89.59
2023-01-02T07:28:34.566Z,89.77
2023-01-02T07:31:03.991Z,90.28
2023-01-02T07:33:32.617Z,90.67
2023-01-02T07:36:00.564Z,91.06
2023-01-02T07:38:28.844Z,91.31
2023-01-02T07:40:57.705Z,91.35
2023-01-02T07:43:25.349Z,90.92
2023-01-02T07:45:53.115Z,90.79
2023-01-02T07:48:20.808Z,90.40
2023-01-02T07:50:48.342Z,89.80
2023-01-02T07:53:15.931Z,89.00
2023-01-02T07:55:43.445Z,88.25
2023-01-02T07:58:12.347Z,87.33
2023-01-02T08:00:39.842Z,86.78
2023-01-02T08:03:07.541Z,86.25
2023-01-02T08:05:35.547Z,85.64
2023-01-02T08:08:03.054Z,85.07
2023-01-02T08:10:31.621Z,84.87
2023-01-02T08:12:59.134Z,84.52
2023-01-02T08:15:28.013Z,84.08
2023-01-02T08:17:57.437Z,83.71
2023-01-02T08:20:25.145Z,83.36
2023-01-02T08:22:52.700Z,83.17
2023-01-02T08:25:20.224Z,82.97
2023-01-02T08:27:47.714Z,82.78
2023-01-02T08:30:15.504Z,82.54
2023-01-02T08:32:44.367Z,82.47
2023-01-02T08:35:11.864Z,82.42
2023-01-02T08:37:39.526Z,82.23
2023-01-02T08:40:07.803Z,82.00
2023-01-02T08:42:35.369Z,81.44
2023-01-02T08:45:02.877Z,81.33
2023-01-02T08:47:30.403Z,80.74
2023-01-02T08:49:59.218Z,80.73
2023-01-02T08:52:26.742Z,80.22
2023-01-02T08:54:54.238Z,79.96
2023-01-02T08:57:21.761Z,79.37
2023-01-02T08:59:49.261Z,78.90
2023-01-02T09:02:16.956Z,78.43
2023-01-02T09:04:44.602Z,78.25
2023-01-02T09:07:13.598Z,77.79
2023-01-02T09:09:41.171Z,77.59
2023-01-02T09:12:08.810Z,77.31
2023-01-02T09:14:36.463Z,76.59
2023-01-02T09:17:04.991Z,76.46
2023-01-02T09:19:32.600Z,76.60
2023-01-02T09:22:01.345Z,76.91
2023-01-02T09:24:30.202Z,76.99
2023-01-02T09:26:57.780Z,77.10
2023-01-02T09:29:25.294Z,76.95
2023-01-02T09:31:52.872Z,77.02
2023-01-02T09:34:20.464Z,76.86
2023-01-02T09:36:48.374Z,76.64
2023-01-02T09:39:15.975Z,76.84
2023-01-02T09:41:47.451Z,76.82
2023-01-02T09:44:19.785Z,76.62
2023-01-02T09:46:51.675Z,76.26
2023-01-02T09:49:22.435Z,76.24
2023-01-02T09:51:50.166Z,76.17
2023-01-02T09:54:23.868Z,76.19
2023-01-02T09:57:04.376Z,76.36
2023-01-02T09:59:35.972Z,76.46
2023-01-02T10:02:19.514Z,76.54
2023-01-02T10:05:02.687Z,76.32
2023-01-02T10:07:39.255Z,76.43
2023-01-02T10:10:11.643Z,76.62
2023-01-02T10:12:53.432Z,76.35
2023-01-02T10:15:28.009Z,76.19
2023-01-02T10:17:59.275Z,76.65
2023-01-02T10:20:31.720Z,76.45
2023-01-02T10:23:02.500Z,76.76
2023-01-02T10:25:34.756Z,77.30
2023-01-02T10:28:14.446Z,77.68
2023-01-02T10:30:47.613Z,78.05
2023-01-02T10:33:21.539Z,78.52
2023-01-02T10:35:55.197Z,78.83
2023-01-02T10:38:22.791Z,78.63
2023-01-02T10:40:52.086Z,78.52
2023-01-02T10:43:21.116Z,78.19
2023-01-02T10:45:48.647Z,78.25
2023-01-02T10:48:16.229Z,78.31
2023-01-02T10:50:50.988Z,78.25
2023-01-02T10:53:22.713Z,78.18
2023-01-02T10:55:50.378Z,78.49
2023-01-02T10:58:23.836Z,78.31
2023-01-02T11:00:53.123Z,78.20
2023-01-02T11:03:23.403Z,78.60
2023-01-02T11:05:53.260Z,78.73
2023-01-02T11:08:22.641Z,79.07
2023-01-02T11:10:50.490Z,79.35
2023-01-02T11:13:20.196Z,79.45
2023-01-02T11:15:57.130Z,79.48
2023-01-02T11:18:27.520Z,79.13
2023-01-02T11:21:03.901Z,79.84
2023-01-02T11:23:36.473Z,80.27
2023-01-02T11:26:05.843Z,80.52
2023-01-02T11:28:36.072Z,80.79
2023-01-02T11:31:07.294Z,80.96
2023-01-02T11:33:36.836Z,80.71
2023-01-02T11:36:17.333Z,80.64
2023-01-02T11:38:46.625Z,79.93
2023-01-02T11:41:47.821Z,79.59
2023-01-02T11:44:20.700Z,78.94
2023-01-02T11:46:51.655Z,78.85
2023-01-02T11:49:21.976Z,79.04
2023-01-02T11:51:57.466Z,79.36
2023-01-02T11:54:36.080Z,79.57
2023-01-02T11:57:06.371Z,79.56
2023-01-02T11:59:39.855Z,79.43
2023-01-02T12:02:19.731Z,80.06
2023-01-02T12:04:47.393Z,80.10
2023-01-02T12:07:42.658Z,80.42
2023-01-02T12:10:26.140Z,80.40
2023-01-02T12:13:06.851Z,80.49
2023-01-02T12:15:56.411Z,80.78
2023-01-02T12:18:37.491Z,80.11
2023-01-02T12:21:16.640Z,79.12
2023-01-02T12:24:03.492Z,78.11
2023-01-02T12:26:37.965Z,77.37
2023-01-02T12:29:46.623Z,76.67
2023-01-02T12:32:54.355Z,75.71
2023-01-02T12:35:42.105Z,75.66
2023-01-02T12:38:12.055Z,75.30
2023-01-02T12:40:50.109Z,75.12
2023-01-02T12:43:56.545Z,75.53
2023-01-02T12:46:36.532Z,75.08
2023-01-02T12:49:28.032Z,75.49
2023-01-02T12:52:05.000Z,75.72
2023-01-02T12:54:47.124Z,76.16
2023-01-02T12:57:23.965Z,76.08
2023-01-02T13:00:18.110Z,75.83
2023-01-02T13:03:09.582Z,74.82
2023-01-02T13:05:42.418Z,74.44
2023-01-02T13:08:17.856Z,74.45
2023-01-02T13:10:46.756Z,74.93
2023-01-02T13:13:15.379Z,74.80
2023-01-02T13:15:46.751Z,74.81
2023-01-02T13:18:21.772Z,75.07
2023-01-02T13:20:54.090Z,75.18
2023-01-02T13:23:35.527Z,75.45
2023-01-02T13:26:08.349Z,75.42
2023-01-02T13:28:42.550Z,75.95
2023-01-02T13:31:44.672Z,77.22
2023-01-02T13:34:08.643Z,79.02
2023-01-02T13:36:39.981Z,80.51
2023-01-02T13:39:19.940Z,81.14
2023-01-02T13:42:09.715Z,81.86
2023-01-02T13:44:39.945Z,82.49
2023-01-02T13:47:20.914Z,82.65
2023-01-02T13:49:56.904Z,82.95
2023-01-02T13:52:24.784Z,83.14
2023-01-02T13:55:31.365Z,83.64
2023-01-02T13:58:40.484Z,84.01
2023-01-02T14:01:42.818Z,84.50
2023-01-02T14:04:31.214Z,84.92
2023-01-02T14:07:37.336Z,85.42
2023-01-02T14:10:30.787Z,86.20
2023-01-02T14:13:05.345Z,86.59
2023-01-02T14:15:37.786Z,87.02
2023-01-02T14:18:07.634Z,87.76
2023-01-02T14:20:37.483Z,88.29
2023-01-02T14:23:08.831Z,88.86
2023-01-02T14:25:46.743Z,89.07
2023-01-02T14:28:22.513Z,89.29
2023-01-02T14:30:51.102Z,89.74
2023-01-02T14:33:27.889Z,90.08
2023-01-02T14:35:58.490Z,90.43
2023-01-02T14:38:28.760Z,91.02
2023-01-02T14:41:18.399Z,91.19
2023-01-02T14:43:46.549Z,91.54
2023-01-02T14:46:17.705Z,92.10
2023-01-02T14:48:54.784Z,92.47
2023-01-02T14:51:28.782Z,92.93
2023-01-02T14:54:00.132Z,93.18
2023-01-02T14:56:33.619Z,93.40
2023-01-02T14:59:03.160Z,93.81
2023-01-02T15:01:42.902Z,94.01
2023-01-02T15:04:20.033Z,94.33
2023-01-02T15:06:51.551Z,94.46
2023-01-02T15:09:28.108Z,94.59
2023-01-02T15:12:20.321Z,94.87
2023-01-02T15:14:48.078Z,95.12
2023-01-02T15:17:21.122Z,95.17
2023-01-02T15:19:49.196Z,95.19
2023-01-02T15:22:19.156Z,95.02
2023-01-02T15:24:48.712Z,95.04
2023-01-02T15:27:24.742Z,95.34
2023-01-02T15:29:55.135Z,95.50
2023-01-02T15:32:25.052Z,95.82
2023-01-02T15:34:53.150Z,95.90
2023-01-02T15:37:23.746Z,96.15
2023-01-02T15:39:53.765Z,96.10
2023-01-02T15:42:43.960Z,96.22
2023-01-02T15:45:15.240Z,96.56
2023-01-02T15:47:46.688Z,96.87
2023-01-02T15:50:18.791Z,97.22
2023-01-02T15:52:49.019Z,97.44
2023-01-02T15:55:18.980Z,97.59
2023-01-02T15:57:51.567Z,97.75
2023-01-02T16:00:34.057Z,98.07
2023-01-02T16:03:01.972Z,98.30
2023-01-02T16:05:30.746Z,98.59
2023-01-02T16:08:00.143Z,98.86
2023-01-02T16:10:30.745Z,98.91
2023-01-02T16:13:26.722Z,99.17
2023-01-02T16:16:16.481Z,99.00
2023-01-02T16:18:47.131Z,99.05
2023-01-02T16:21:16.481Z,99.07
2023-01-02T16:23:50.003Z,99.34
2023-01-02T16:26:18.895Z,99.48
2023-01-02T16:28:51.217Z,99.33
2023-01-02T16:31:20.993Z,99.51
2023-01-02T16:33:49.474Z,99.48
2023-01-02T16:36:24.485Z,99.61
2023-01-02T16:38:53.884Z,99.88
2023-01-02T16:42:18.471Z,99.91
2023-01-02T16:44:54.965Z,100.00
2023-01-02T16:47:22.996Z,100.00
2023-01-02T16:49:50.597Z,100.00
2023-01-02T16:52:18.126Z,100.00
2023-01-02T16:54:49.298Z,100.00
2023-01-02T16:57:23.280Z,100.00
2023-01-02T16:59:52.216Z,100.00
2023-01-02T17:02:19.854Z,100.00
2023-01-02T17:04:47.547Z,100.00
2023-01-02T17:07:20.223Z,100.00
2023-01-02T17:09:49.796Z,100.00
2023-01-02T17:12:17.452Z,100.00
2023-01-02T17:14:44.945Z,100.00
2023-01-02T17:17:13.872Z,100.00
2023-01-02T17:19:41.376Z,100.00
2023-01-02T17:22:08.873Z,100.00
2023-01-02T17:24:36.457Z,100.00
2023-01-02T17:27:04.052Z,100.00
2023-01-02T17:29:31.613Z,100.00
2023-01-02T17:31:59.141Z,100.00
2023-01-02T17:34:28.135Z,100.00
2023-01-02T17:36:56.981Z,100.00
2023-01-02T17:39:25.117Z,100.00
2023-01-02T17:41:52.749Z,100.00
2023-01-02T17:44:20.397Z,100.00
2023-01-02T17:49:36.861Z,100.00
2023-01-02T17:52:04.590Z,100.00
2023-01-02T17:54:32.814Z,100.00
2023-01-02T17:57:00.380Z,100.00
2023-01-02T17:59:28.129Z,100.00
2023-01-02T18:01:55.847Z,100.00
2023-01-02T18:04:23.578Z,100.00
2023-01-02T18:06:52.536Z,100.00
2023-01-02T18:09:20.147Z,100.00
2023-01-02T18:11:47.887Z,100.00
2023-01-02T18:14:19.051Z,100.00
2023-01-02T18:16:47.647Z,100.00
2023-01-02T18:19:22.214Z,100.00
2023-01-02T18:21:50.546Z,100.00
2023-01-02T18:24:24.473Z,100.00
2023-01-02T18:26:57.467Z,100.00
2023-01-02T18:29:25.793Z,100.00
2023-01-02T18:31:53.341Z,100.00
2023-01-02T18:37:19.098Z,100.00
2023-01-02T18:39:49.741Z,100.00
2023-01-02T18:42:20.437Z,100.00
2023-01-02T18:44:49.192Z,100.00
2023-01-02T18:47:25.755Z,100.00
2023-01-02T18:49:54.458Z,100.00
2023-01-02T18:52:27.424Z,100.00
2023-01-02T18:55:01.991Z,100.00
2023-01-02T18:57:33.719Z,100.00
2023-01-02T19:00:14.069Z,100.00
2023-01-02T19:02:56.209Z,100.00
2023-01-02T19:05:26.477Z,100.00
2023-01-02T19:08:03.152Z,100.00
2023-01-02T19:10:38.763Z,100.00
2023-01-02T19:13:13.047Z,100.00
2023-01-02T19:15:43.800Z,100.00
2023-01-02T19:18:37.766Z,100.00
2023-01-02T19:21:18.317Z,100.00
2023-01-02T19:23:49.565Z,100.00
2023-01-02T19:26:23.378Z,100.00
2023-01-02T19:28:56.115Z,100.00
2023-01-02T19:31:24.447Z,100.00
2023-01-02T19:33:57.076Z,100.00
2023-01-02T19:36:35.832Z,100.00
2023-01-02T19:39:19.935Z,100.00
2023-01-02T19:42:06.605Z,100.00
2023-01-02T19:44:34.114Z,100.00
2023-01-02T19:47:01.623Z,100.00
2023-01-02T19:49:29.174Z,100.00
2023-01-02T19:51:56.713Z,100.00
2023-01-02T19:54:24.330Z,100.00
2023-01-02T19:56:53.353Z,100.00
2023-01-02T19:59:20.958Z,100.00
2023-01-02T20:01:48.722Z,100.00
2023-01-02T20:04:16.284Z,100.00
2023-01-02T20:06:43.842Z,100.00
2023-01-02T20:09:11.405Z,100.00
2023-01-02T20:11:56.236Z,100.00
2023-01-02T20:14:26.724Z,100.00
2023-01-02T20:16:54.219Z,100.00
2023-01-02T20:19:21.855Z,100.00
2023-01-02T20:21:49.400Z,100.00
2023-01-02T20:24:16.914Z,100.00
2023-01-02T20:26:44.405Z,100.00
2023-01-02T20:29:11.903Z,100.00
2023-01-02T20:31:40.788Z,100.00
2023-01-02T20:34:08.287Z,100.00
2023-01-02T20:36:35.818Z,100.00
2023-01-02T20:39:03.489Z,100.00
2023-01-02T20:41:31.244Z,100.00
2023-01-02T20:43:58.803Z,100.00
2023-01-02T20:46:26.415Z,100.00
2023-01-02T20:48:55.313Z,100.00
2023-01-02T20:51:22.912Z,100.00
2023-01-02T20:53:50.556Z,100.00
2023-01-02T20:56:18.093Z,100.00
2023-01-02T20:58:45.714Z,100.00
2023-01-02T21:01:13.756Z,100.00
2023-01-02T21:03:41.437Z,100.00
2023-01-02T21:06:10.470Z,100.00
2023-01-02T21:08:38.001Z,100.00
2023-01-02T21:11:06.285Z,100.00
2023-01-02T21:13:33.879Z,100.00
2023-01-02T21:16:01.879Z,100.00
2023-01-02T21:18:31.525Z,100.00
2023-01-02T21:21:00.821Z,100.00
2023-01-02T21:23:31.012Z,100.00
2023-01-02T21:25:59.263Z,100.00
2023-01-02T21:28:27.202Z,100.00
2023-01-02T21:30:55.129Z,100.00
2023-01-02T21:33:24.586Z,100.00
2023-01-02T21:35:53.451Z,100.00
2023-01-02T21:38:22.348Z,100.00
2023-01-02T21:40:51.809Z,100.00
2023-01-02T21:43:19.835Z,100.00
2023-01-02T21:45:47.384Z,100.00
2023-01-02T21:48:14.920Z,100.00
2023-01-02T21:50:42.446Z,100.00
2023-01-02T21:53:09.954Z,100.00
2023-01-02T21:55:37.443Z,100.00
2023-01-02T21:58:14.317Z,100.00
2023-01-02T22:00:42.816Z,100.00
2023-01-02T22:03:10.521Z,100.00
2023-01-02T22:05:38.178Z,100.00
2023-01-02T22:08:06.167Z,100.00
2023-01-02T22:10:33.676Z,100.00
2023-01-02T22:13:01.495Z,100.00
2023-01-02T22:15:30.324Z,100.00
2023-01-02T22:17:57.867Z,100.00
2023-01-02T22:20:25.799Z,100.00
2023-01-02T22:22:53.368Z,100.00
2023-01-02T22:25:20.889Z,100.00
2023-01-02T22:27:48.420Z,100.00
2023-01-02T22:30:31.093Z,100.00
2023-01-02T22:33:02.611Z,100.00
2023-01-02T22:35:30.219Z,100.00
2023-01-02T22:37:59.367Z,100.00
2023-01-02T22:40:27.077Z,100.00
2023-01-02T22:43:10.096Z,100.00
2023-01-02T22:45:42.291Z,100.00
2023-01-02T22:48:19.041Z,100.00
2023-01-02T22:50:47.794Z,100.00
2023-01-02T22:53:20.791Z,100.00
2023-01-02T22:55:48.932Z,100.00
2023-01-02T22:58:16.714Z,100.00
2023-01-02T23:00:45.287Z,100.00
2023-01-02T23:03:15.766Z,100.00
2023-01-02T23:05:43.944Z,100.00
2023-01-02T23:08:11.571Z,100.00
2023-01-02T23:10:39.291Z,100.00
2023-01-02T23:13:06.865Z,100.00
2023-01-02T23:15:34.342Z,100.00
2023-01-02T23:18:19.764Z,100.00
2023-01-02T23:20:48.574Z,100.00
2023-01-02T23:23:16.094Z,100.00
2023-01-02T23:25:44.558Z,100.00
2023-01-02T23:28:31.956Z,100.00
2023-01-02T23:30:59.580Z,100.00
2023-01-02T23:33:27.228Z,100.00
2023-01-02T23:35:56.154Z,100.00
2023-01-02T23:38:23.746Z,100.00
2023-01-02T23:40:51.217Z,100.00
2023-01-02T23:43:18.747Z,100.00
2023-01-02T23:45:46.393Z,100.00
2023-01-02T23:48:13.942Z,100.00
2023-01-02T23:50:46.184Z,100.00
2023-01-02T23:53:15.134Z,100.00
2023-01-02T23:55:43.091Z,100.00
2023-01-02T23:58:10.732Z,100.00
